Saint Charles, Maryland
Current Conditions -  °F | °C
As of 4:58 AM on Sunday 23 Nov 2014 (Local Time) from KDAA Reporting Station
Scattered Clouds Scattered Clouds  
Wind Chill: 40°   Ceiling: Unl
Heat Index: 40°   Visibility: 10mi
Dew Point: 20°   Wind: 2mph
Humidity: 44%   Direction: NA
Pressure: 30.22"   Gusts: NA
Location:  38.6305°N, 76.9735°W
Report Text: KDAA 230958Z AUTO VRB02KT 10SM SCT100 05/M07 A3022 RMK AO2 SLP237 T00461067
Loading
Personal Weather Stations






























Interactive Weather Map New forecast layout! Learn more

10-Day Weather Forecast

Advertisements
Track Severe Weather on mobile